createdAt,value
2019-01-17T00:01:23.408Z,19.77
2019-01-17T00:03:53.646Z,22.30
2019-01-17T00:06:35.951Z,22.83
2019-01-17T00:09:08.401Z,21.87
2019-01-17T00:11:38.549Z,22.60
2019-01-17T00:14:14.441Z,20.07
2019-01-17T00:16:50.441Z,22.57
2019-01-17T00:19:33.760Z,26.03
2019-01-17T00:22:15.818Z,25.13
2019-01-17T00:24:45.961Z,25.47
2019-01-17T00:27:28.285Z,27.53
2019-01-17T00:30:04.185Z,27.23
2019-01-17T00:32:46.016Z,22.77
2019-01-17T00:35:25.148Z,24.13
2019-01-17T00:37:55.353Z,27.60
2019-01-17T00:40:25.501Z,25.90
2019-01-17T00:42:58.348Z,27.70
2019-01-17T00:45:33.961Z,21.10
2019-01-17T00:48:07.045Z,18.20
2019-01-17T00:50:37.194Z,17.83
2019-01-17T00:53:23.564Z,19.03
2019-01-17T00:55:56.448Z,18.73
2019-01-17T00:58:42.337Z,20.27
2019-01-17T01:01:15.212Z,18.80
2019-01-17T01:03:45.420Z,17.13
2019-01-17T01:06:15.714Z,19.70
2019-01-17T01:08:51.933Z,17.80
2019-01-17T01:11:24.784Z,17.57
2019-01-17T01:13:55.019Z,14.67
2019-01-17T01:16:37.370Z,15.13
2019-01-17T01:19:07.566Z,16.97
2019-01-17T01:21:37.712Z,16.27
2019-01-17T01:24:23.842Z,16.63
2019-01-17T01:26:59.858Z,16.27
2019-01-17T01:29:33.021Z,16.20
2019-01-17T01:32:03.174Z,13.97
2019-01-17T01:34:38.779Z,14.83
2019-01-17T01:37:25.050Z,14.33
2019-01-17T01:40:01.069Z,15.67
2019-01-17T01:42:48.880Z,14.30
2019-01-17T01:45:24.849Z,14.70
2019-01-17T01:47:54.997Z,15.67
2019-01-17T01:50:25.204Z,15.03
2019-01-17T01:52:58.392Z,14.47
2019-01-17T01:55:26.957Z,15.20
2019-01-17T01:57:55.461Z,13.13
2019-01-17T02:00:24.024Z,12.20
2019-01-17T02:02:52.593Z,8.73
2019-01-17T02:05:21.073Z,5.30
2019-01-17T02:07:49.589Z,5.07
2019-01-17T02:10:18.217Z,3.90
2019-01-17T02:12:46.696Z,3.70
2019-01-17T02:15:15.342Z,3.03
2019-01-17T02:17:43.894Z,2.97
2019-01-17T02:20:12.597Z,2.97
2019-01-17T02:22:41.085Z,3.13
2019-01-17T02:25:09.803Z,3.10
2019-01-17T02:27:38.428Z,2.90
2019-01-17T02:30:10.209Z,3.50
2019-01-17T02:32:38.765Z,3.93
2019-01-17T02:35:07.917Z,4.27
2019-01-17T02:37:36.479Z,4.17
2019-01-17T02:40:08.397Z,4.27
2019-01-17T02:42:37.026Z,4.73
2019-01-17T02:45:08.605Z,5.73
2019-01-17T02:47:37.158Z,5.20
2019-01-17T02:50:07.901Z,5.47
2019-01-17T02:52:36.478Z,5.30
2019-01-17T02:55:07.830Z,5.60
2019-01-17T02:57:36.345Z,6.10
2019-01-17T03:00:07.926Z,8.17
2019-01-17T03:02:36.477Z,10.50
2019-01-17T03:05:05.818Z,6.33
2019-01-17T03:07:34.437Z,6.80
2019-01-17T03:10:03.169Z,6.87
2019-01-17T03:12:31.717Z,7.33
2019-01-17T03:15:00.278Z,7.40
2019-01-17T03:17:28.849Z,8.83
2019-01-17T03:19:57.437Z,9.27
2019-01-17T03:22:25.928Z,8.20
2019-01-17T03:24:54.478Z,9.30
2019-01-17T03:27:23.061Z,9.77
2019-01-17T03:29:51.550Z,9.70
2019-01-17T03:32:20.142Z,10.37
2019-01-17T03:34:48.689Z,9.17
2019-01-17T03:37:17.221Z,9.17
2019-01-17T03:39:45.711Z,8.77
2019-01-17T03:42:14.269Z,8.13
2019-01-17T03:44:42.746Z,7.60
2019-01-17T03:47:11.586Z,7.67
2019-01-17T03:49:40.133Z,5.13
2019-01-17T03:52:08.709Z,6.77
2019-01-17T03:54:37.411Z,6.47
2019-01-17T03:57:05.989Z,5.87
2019-01-17T03:59:34.544Z,5.77
2019-01-17T04:02:03.122Z,9.00
2019-01-17T04:04:31.687Z,6.80
2019-01-17T04:07:00.190Z,6.73
2019-01-17T04:09:28.685Z,6.43
2019-01-17T04:11:57.265Z,6.47
2019-01-17T04:14:25.820Z,6.63
2019-01-17T04:16:54.302Z,9.73
2019-01-17T04:19:22.803Z,7.33
2019-01-17T04:21:51.334Z,8.03
2019-01-17T04:24:19.901Z,7.13
2019-01-17T04:26:48.462Z,7.23
2019-01-17T04:29:16.968Z,9.70
2019-01-17T04:31:45.526Z,8.27
2019-01-17T04:34:14.100Z,6.63
2019-01-17T04:36:42.658Z,8.03
2019-01-17T04:39:11.773Z,7.50
2019-01-17T04:41:40.331Z,7.60
2019-01-17T04:44:08.982Z,7.13
2019-01-17T04:46:37.535Z,7.83
2019-01-17T04:49:06.111Z,8.30
2019-01-17T04:51:34.675Z,7.63
2019-01-17T04:54:03.242Z,8.67
2019-01-17T04:56:31.721Z,9.13
2019-01-17T04:59:00.225Z,10.70
2019-01-17T05:01:28.782Z,9.70
2019-01-17T05:03:57.365Z,9.90
2019-01-17T05:06:25.862Z,10.87
2019-01-17T05:08:54.503Z,12.53
2019-01-17T05:11:23.019Z,10.57
2019-01-17T05:13:51.582Z,10.30
2019-01-17T05:16:20.225Z,12.17
2019-01-17T05:18:48.720Z,11.83
2019-01-17T05:21:17.395Z,15.57
2019-01-17T05:23:45.996Z,11.47
2019-01-17T05:26:14.652Z,15.37
2019-01-17T05:28:43.240Z,12.30
2019-01-17T05:31:11.794Z,15.60
2019-01-17T05:33:40.357Z,13.30
2019-01-17T05:36:09.041Z,12.90
2019-01-17T05:38:37.533Z,13.20
2019-01-17T05:41:06.118Z,13.13
2019-01-17T05:43:34.676Z,12.90
2019-01-17T05:46:03.322Z,13.60
2019-01-17T05:48:31.811Z,16.63
2019-01-17T05:51:00.393Z,15.00
2019-01-17T05:53:28.963Z,15.10
2019-01-17T05:55:57.549Z,13.90
2019-01-17T05:58:26.118Z,14.40
2019-01-17T06:00:54.748Z,16.27
2019-01-17T06:03:23.272Z,16.33
2019-01-17T06:05:52.165Z,68.33
2019-01-17T06:08:20.656Z,39.27
2019-01-17T06:10:49.170Z,21.23
2019-01-17T06:13:17.834Z,20.87
2019-01-17T06:15:46.666Z,18.53
2019-01-17T06:18:15.183Z,16.27
2019-01-17T06:20:43.769Z,14.80
2019-01-17T06:23:12.255Z,15.17
2019-01-17T06:25:40.795Z,15.40
2019-01-17T06:28:09.411Z,16.27
2019-01-17T06:30:37.898Z,16.70
2019-01-17T06:33:06.478Z,18.97
2019-01-17T06:35:34.969Z,16.50
2019-01-17T06:38:03.693Z,17.63
2019-01-17T06:40:32.389Z,16.77
2019-01-17T06:43:00.902Z,14.83
2019-01-17T06:45:29.458Z,16.57
2019-01-17T06:47:58.109Z,15.57
2019-01-17T06:50:26.673Z,16.33
2019-01-17T06:52:55.189Z,17.07
2019-01-17T06:55:23.816Z,18.70
2019-01-17T06:57:52.479Z,21.47
2019-01-17T07:00:21.115Z,18.37
2019-01-17T07:02:49.689Z,17.93
2019-01-17T07:05:18.353Z,24.77
2019-01-17T07:07:46.992Z,19.80
2019-01-17T07:10:17.232Z,23.37
2019-01-17T07:12:46.201Z,20.23
2019-01-17T07:15:15.020Z,21.00
2019-01-17T07:17:43.538Z,22.33
2019-01-17T07:20:14.235Z,25.57
2019-01-17T07:22:42.817Z,23.00
2019-01-17T07:25:11.656Z,25.73
2019-01-17T07:27:40.310Z,22.80
2019-01-17T07:30:20.030Z,26.83
2019-01-17T07:32:48.852Z,22.67
2019-01-17T07:35:17.660Z,26.20
2019-01-17T07:37:47.431Z,23.73
2019-01-17T07:40:16.442Z,23.37
2019-01-17T07:42:45.002Z,26.97
2019-01-17T07:45:19.004Z,34.77
2019-01-17T07:47:47.725Z,43.83
2019-01-17T07:50:16.426Z,44.07
2019-01-17T07:52:45.061Z,25.90
2019-01-17T07:55:13.713Z,24.63
2019-01-17T07:57:42.201Z,25.07
2019-01-17T08:00:13.789Z,24.43
2019-01-17T08:02:42.278Z,20.50
2019-01-17T08:05:10.853Z,19.63
2019-01-17T08:07:39.481Z,30.00
2019-01-17T08:10:11.170Z,22.37
2019-01-17T08:12:39.803Z,23.87
2019-01-17T08:15:10.511Z,23.50
2019-01-17T08:17:39.090Z,26.80
2019-01-17T08:20:10.749Z,25.20
2019-01-17T08:22:39.330Z,20.87
2019-01-17T08:25:10.406Z,25.20
2019-01-17T08:27:38.954Z,23.87
2019-01-17T08:30:10.540Z,21.37
2019-01-17T08:32:39.097Z,27.27
2019-01-17T08:35:08.026Z,23.83
2019-01-17T08:37:36.613Z,23.67
2019-01-17T08:40:20.571Z,26.73
2019-01-17T08:42:49.148Z,25.90
2019-01-17T08:45:18.283Z,27.43
2019-01-17T08:47:46.908Z,25.40
2019-01-17T08:50:16.743Z,24.90
2019-01-17T08:52:45.377Z,25.73
2019-01-17T08:55:14.092Z,23.20
2019-01-17T08:57:42.655Z,26.60
2019-01-17T09:00:19.253Z,24.87
2019-01-17T09:02:47.827Z,25.63
2019-01-17T09:05:17.822Z,26.73
2019-01-17T09:07:46.317Z,25.23
2019-01-17T09:10:20.556Z,25.87
2019-01-17T09:12:49.158Z,24.10
2019-01-17T09:15:20.518Z,26.80
2019-01-17T09:17:49.006Z,29.23
2019-01-17T09:20:17.569Z,25.73
2019-01-17T09:22:46.078Z,27.43
2019-01-17T09:25:16.013Z,27.47
2019-01-17T09:27:44.677Z,28.47
2019-01-17T09:30:18.321Z,31.53
2019-01-17T09:32:47.037Z,31.17
2019-01-17T09:35:16.766Z,28.40
2019-01-17T09:37:45.419Z,23.27
2019-01-17T09:40:19.646Z,24.53
2019-01-17T09:42:48.297Z,21.53
2019-01-17T09:45:17.097Z,21.47
2019-01-17T09:47:45.743Z,21.30
2019-01-17T09:50:22.989Z,21.87
2019-01-17T09:52:51.711Z,20.30
2019-01-17T09:55:20.334Z,17.63
2019-01-17T09:57:48.981Z,18.73
2019-01-17T10:00:28.534Z,18.27
2019-01-17T10:02:58.417Z,18.17
2019-01-17T10:05:26.985Z,16.50
2019-01-17T10:07:55.560Z,18.63
2019-01-17T10:10:25.301Z,17.30
2019-01-17T10:12:54.045Z,17.20
2019-01-17T10:15:34.119Z,17.37
2019-01-17T10:18:31.278Z,19.30
2019-01-17T10:21:14.540Z,15.50
2019-01-17T10:23:57.915Z,16.80
2019-01-17T10:26:35.560Z,16.70
2019-01-17T10:29:25.217Z,16.33
2019-01-17T10:31:59.584Z,17.10
2019-01-17T10:34:37.200Z,20.53
2019-01-17T10:37:27.888Z,16.93
2019-01-17T10:40:02.464Z,16.57
2019-01-17T10:42:45.712Z,14.07
2019-01-17T10:45:29.085Z,15.60
2019-01-17T10:48:06.580Z,18.77
2019-01-17T10:50:52.612Z,16.17
2019-01-17T10:53:33.191Z,14.23
2019-01-17T10:56:07.770Z,16.27
2019-01-17T10:58:39.482Z,14.47
2019-01-17T11:01:32.145Z,10.87
2019-01-17T11:04:15.584Z,18.03
2019-01-17T11:06:58.935Z,14.67
2019-01-17T11:09:39.300Z,15.77
2019-01-17T11:12:31.429Z,13.50
2019-01-17T11:15:08.660Z,15.83
2019-01-17T11:17:43.222Z,13.03
2019-01-17T11:20:32.612Z,9.90
2019-01-17T11:23:06.620Z,14.77
2019-01-17T11:25:40.016Z,13.17
2019-01-17T11:28:26.646Z,11.83
2019-01-17T11:31:14.822Z,12.03
2019-01-17T11:33:52.097Z,16.07
2019-01-17T11:36:57.861Z,10.73
2019-01-17T11:39:44.170Z,14.53
2019-01-17T11:42:21.381Z,14.43
2019-01-17T11:45:10.976Z,14.43
2019-01-17T11:47:42.603Z,13.67
2019-01-17T11:50:30.436Z,15.10
2019-01-17T11:53:04.793Z,11.10
2019-01-17T11:55:36.359Z,14.13
2019-01-17T11:58:22.704Z,11.17
2019-01-17T12:00:54.277Z,12.87
2019-01-17T12:03:28.361Z,10.30
2019-01-17T12:05:56.870Z,6.97
2019-01-17T12:08:25.434Z,25.23
2019-01-17T12:10:53.921Z,11.67
2019-01-17T12:13:22.425Z,9.20
2019-01-17T12:15:50.989Z,12.33
2019-01-17T12:18:19.497Z,24.47
2019-01-17T12:20:48.061Z,10.97
2019-01-17T12:23:16.642Z,20.00
2019-01-17T12:25:45.209Z,13.07
2019-01-17T12:28:13.706Z,10.73
2019-01-17T12:30:42.195Z,13.60
2019-01-17T12:33:10.770Z,12.00
2019-01-17T12:35:39.260Z,15.83
2019-01-17T12:38:07.833Z,9.53
2019-01-17T12:40:36.313Z,11.60
2019-01-17T12:43:05.369Z,11.53
2019-01-17T12:45:33.937Z,11.30
2019-01-17T12:48:02.513Z,13.10
2019-01-17T12:50:31.886Z,11.43
2019-01-17T12:53:00.489Z,10.30
2019-01-17T12:55:29.120Z,13.43
2019-01-17T12:57:57.624Z,12.37
2019-01-17T13:00:26.190Z,16.07
2019-01-17T13:02:54.839Z,15.33
2019-01-17T13:05:23.401Z,10.97
2019-01-17T13:07:52.554Z,25.93
2019-01-17T13:10:21.995Z,21.43
2019-01-17T13:12:50.625Z,21.07
2019-01-17T13:15:19.256Z,15.80
2019-01-17T13:17:47.816Z,14.97
2019-01-17T13:20:16.665Z,11.23
2019-01-17T13:22:45.307Z,12.00
2019-01-17T13:25:16.900Z,11.27
2019-01-17T13:27:45.459Z,7.00
2019-01-17T13:30:16.738Z,8.23
2019-01-17T13:32:45.299Z,12.40
2019-01-17T13:35:14.013Z,10.60
2019-01-17T13:37:42.639Z,8.93
2019-01-17T13:40:16.734Z,7.57
2019-01-17T13:42:45.228Z,9.47
2019-01-17T13:45:20.957Z,7.10
2019-01-17T13:47:50.765Z,9.60
2019-01-17T13:50:19.605Z,7.43
2019-01-17T13:52:48.237Z,5.97
2019-01-17T13:55:17.544Z,5.10
2019-01-17T13:57:46.030Z,5.07
2019-01-17T14:00:25.319Z,4.73
2019-01-17T14:02:54.313Z,4.50
2019-01-17T14:05:22.876Z,6.50
2019-01-17T14:07:52.558Z,4.40
2019-01-17T14:10:21.269Z,4.10
2019-01-17T14:12:49.827Z,3.80
2019-01-17T14:15:24.558Z,4.60
2019-01-17T14:17:54.285Z,5.17
2019-01-17T14:20:22.854Z,4.17
2019-01-17T14:22:51.340Z,4.87
2019-01-17T14:25:19.854Z,4.67
2019-01-17T14:27:48.329Z,4.43
2019-01-17T14:30:26.420Z,4.70
2019-01-17T14:32:56.924Z,3.60
2019-01-17T14:35:25.477Z,4.63
2019-01-17T14:37:55.298Z,6.57
2019-01-17T14:40:23.842Z,4.63
2019-01-17T14:42:52.409Z,3.37
2019-01-17T14:45:22.037Z,3.40
2019-01-17T14:47:51.676Z,4.10
2019-01-17T14:50:28.900Z,3.23
2019-01-17T14:52:57.417Z,6.07
2019-01-17T14:55:25.961Z,6.93
2019-01-17T14:57:54.465Z,6.87
2019-01-17T15:00:28.505Z,6.07
2019-01-17T15:02:57.137Z,7.57
2019-01-17T15:05:25.861Z,6.63
2019-01-17T15:07:55.984Z,5.67
2019-01-17T15:10:30.193Z,5.87
2019-01-17T15:12:58.789Z,7.30
2019-01-17T15:15:27.420Z,5.60
2019-01-17T15:17:57.414Z,5.47
2019-01-17T15:20:25.965Z,5.30
2019-01-17T15:22:54.473Z,5.07
2019-01-17T15:25:22.961Z,6.17
2019-01-17T15:27:51.683Z,5.93
2019-01-17T15:30:24.973Z,4.83
2019-01-17T15:32:54.022Z,6.10
2019-01-17T15:35:22.554Z,6.17
2019-01-17T15:37:51.225Z,9.17
2019-01-17T15:40:22.421Z,5.83
2019-01-17T15:42:51.130Z,5.07
2019-01-17T15:45:19.848Z,6.23
2019-01-17T15:47:48.489Z,6.17
2019-01-17T15:50:18.616Z,4.93
2019-01-17T15:52:47.242Z,7.23
2019-01-17T15:55:16.584Z,6.23
2019-01-17T15:57:45.292Z,3.93
2019-01-17T16:00:16.794Z,3.70
2019-01-17T16:02:45.618Z,6.57
2019-01-17T16:05:14.938Z,9.97
2019-01-17T16:07:43.490Z,8.80
2019-01-17T16:10:14.409Z,8.13
2019-01-17T16:12:43.035Z,5.60
2019-01-17T16:15:14.256Z,12.03
2019-01-17T16:17:42.737Z,12.20
2019-01-17T16:20:13.618Z,9.97
2019-01-17T16:22:42.295Z,12.07
2019-01-17T16:25:12.821Z,11.97
2019-01-17T16:27:41.923Z,7.93
2019-01-17T16:30:16.393Z,8.93
2019-01-17T16:32:45.013Z,6.13
2019-01-17T16:35:13.598Z,5.00
2019-01-17T16:37:42.290Z,6.80
2019-01-17T16:40:12.134Z,20.27
2019-01-17T16:42:40.698Z,9.27
2019-01-17T16:45:14.560Z,25.87
2019-01-17T16:47:43.113Z,13.50
2019-01-17T16:50:17.699Z,11.50
2019-01-17T16:52:46.322Z,11.90
2019-01-17T16:55:15.365Z,12.83
2019-01-17T16:57:48.941Z,9.90
2019-01-17T17:00:20.303Z,10.33
2019-01-17T17:02:48.911Z,23.93
2019-01-17T17:05:17.670Z,31.13
2019-01-17T17:07:46.213Z,14.87
2019-01-17T17:10:15.476Z,9.63
2019-01-17T17:12:44.162Z,9.67
2019-01-17T17:15:13.467Z,10.47
2019-01-17T17:17:42.074Z,8.37
2019-01-17T17:20:16.193Z,12.90
2019-01-17T17:22:44.829Z,7.83
2019-01-17T17:25:14.457Z,12.47
2019-01-17T17:27:42.959Z,10.23
2019-01-17T17:30:19.789Z,7.07
2019-01-17T17:32:48.504Z,7.00
2019-01-17T17:35:17.058Z,10.00
2019-01-17T17:37:45.630Z,17.73
2019-01-17T17:40:22.672Z,11.73
2019-01-17T17:42:51.258Z,14.23
2019-01-17T17:45:19.883Z,17.30
2019-01-17T17:47:49.904Z,11.93
2019-01-17T17:50:20.089Z,11.13
2019-01-17T17:52:48.662Z,13.03
2019-01-17T17:55:18.150Z,9.40
2019-01-17T17:57:46.694Z,8.50
2019-01-17T18:00:25.121Z,8.50
2019-01-17T18:02:54.098Z,9.07
2019-01-17T18:05:22.992Z,8.50
2019-01-17T18:07:51.600Z,11.43
2019-01-17T18:10:20.159Z,11.27
2019-01-17T18:12:48.822Z,12.27
2019-01-17T18:15:19.296Z,8.53
2019-01-17T18:17:48.176Z,12.10
2019-01-17T18:20:17.524Z,95.80
2019-01-17T18:22:46.107Z,16.53
2019-01-17T18:25:14.744Z,11.10
2019-01-17T18:27:43.253Z,9.50
2019-01-17T18:30:27.707Z,9.70
2019-01-17T18:32:56.408Z,5.63
2019-01-17T18:35:24.956Z,8.70
2019-01-17T18:37:53.462Z,8.70
2019-01-17T18:40:22.680Z,5.63
2019-01-17T18:42:51.306Z,10.63
2019-01-17T18:45:22.764Z,6.97
2019-01-17T18:47:51.413Z,10.37
2019-01-17T18:50:28.438Z,10.13
2019-01-17T18:52:56.991Z,10.57
2019-01-17T18:55:25.493Z,10.90
2019-01-17T18:57:54.051Z,7.33
2019-01-17T19:00:26.106Z,11.67
2019-01-17T19:02:54.794Z,17.57
2019-01-17T19:05:23.441Z,10.00
2019-01-17T19:07:52.071Z,10.10
2019-01-17T19:10:21.393Z,10.07
2019-01-17T19:12:50.090Z,5.30
2019-01-17T19:15:21.219Z,9.77
2019-01-17T19:17:49.772Z,7.50
2019-01-17T19:20:20.299Z,7.73
2019-01-17T19:22:49.129Z,12.07
2019-01-17T19:25:17.874Z,6.67
2019-01-17T19:27:46.429Z,16.37
2019-01-17T19:30:17.957Z,12.53
2019-01-17T19:32:46.589Z,12.60
2019-01-17T19:35:15.308Z,10.53
2019-01-17T19:37:44.002Z,12.63
2019-01-17T19:40:15.605Z,13.17
2019-01-17T19:42:44.317Z,8.90
2019-01-17T19:45:14.557Z,9.23
2019-01-17T19:47:43.273Z,9.63
2019-01-17T19:50:20.221Z,5.07
2019-01-17T19:52:48.857Z,7.70
2019-01-17T19:55:17.569Z,8.87
2019-01-17T19:57:46.127Z,5.97
2019-01-17T20:00:17.717Z,5.70
2019-01-17T20:02:46.337Z,6.33
2019-01-17T20:05:17.556Z,6.83
2019-01-17T20:07:46.274Z,6.70
2019-01-17T20:10:17.585Z,8.67
2019-01-17T20:12:46.072Z,7.87
2019-01-17T20:15:14.789Z,6.60
2019-01-17T20:17:43.424Z,6.97
2019-01-17T20:20:17.092Z,7.40
2019-01-17T20:22:45.929Z,9.53
2019-01-17T20:25:14.921Z,5.80
2019-01-17T20:27:43.492Z,4.77
2019-01-17T20:30:20.319Z,5.70
2019-01-17T20:32:49.150Z,4.60
2019-01-17T20:35:17.877Z,5.70
2019-01-17T20:37:46.522Z,12.23
2019-01-17T20:40:20.337Z,20.73
2019-01-17T20:42:50.524Z,20.37
2019-01-17T20:45:19.090Z,12.13
2019-01-17T20:47:47.921Z,11.70
2019-01-17T20:50:22.370Z,8.03
2019-01-17T20:52:52.031Z,6.23
2019-01-17T20:55:20.663Z,5.87
2019-01-17T20:57:50.470Z,7.50
2019-01-17T21:00:33.958Z,12.40
2019-01-17T21:03:02.675Z,8.73
2019-01-17T21:05:31.233Z,9.93
2019-01-17T21:08:01.169Z,9.57
2019-01-17T21:10:29.717Z,8.10
2019-01-17T21:12:58.277Z,9.13
2019-01-17T21:15:26.850Z,12.10
2019-01-17T21:17:55.418Z,7.60
2019-01-17T21:20:23.901Z,8.37
2019-01-17T21:22:52.468Z,8.73
2019-01-17T21:25:21.398Z,5.73
2019-01-17T21:27:49.973Z,7.40
2019-01-17T21:30:23.530Z,6.67
2019-01-17T21:32:52.165Z,5.40
2019-01-17T21:35:20.648Z,6.53
2019-01-17T21:37:49.229Z,6.03
2019-01-17T21:40:25.139Z,4.97
2019-01-17T21:42:53.793Z,6.13
2019-01-17T21:45:22.824Z,5.90
2019-01-17T21:47:51.407Z,7.07
2019-01-17T21:50:25.435Z,6.53
2019-01-17T21:52:54.114Z,5.63
2019-01-17T21:55:22.671Z,6.07
2019-01-17T21:57:51.253Z,5.03
2019-01-17T22:00:22.687Z,7.80
2019-01-17T22:02:51.335Z,9.90
2019-01-17T22:05:20.034Z,10.00
2019-01-17T22:07:48.653Z,7.33
2019-01-17T22:10:18.766Z,6.13
2019-01-17T22:12:47.484Z,7.73
2019-01-17T22:15:18.760Z,5.63
2019-01-17T22:17:47.315Z,8.20
2019-01-17T22:20:16.541Z,7.07
2019-01-17T22:22:45.160Z,8.17
2019-01-17T22:25:16.001Z,6.67
2019-01-17T22:27:44.634Z,11.13
2019-01-17T22:30:18.717Z,7.23
2019-01-17T22:32:47.313Z,8.77
2019-01-17T22:35:15.957Z,6.93
2019-01-17T22:37:44.593Z,9.80
2019-01-17T22:40:15.105Z,6.77
2019-01-17T22:42:43.597Z,8.17
2019-01-17T22:45:18.323Z,8.87
2019-01-17T22:47:46.884Z,8.20
2019-01-17T22:50:17.511Z,6.83
2019-01-17T22:52:46.410Z,4.73
2019-01-17T22:55:15.058Z,6.90
2019-01-17T22:57:43.621Z,6.73
2019-01-17T23:00:34.537Z,6.03
2019-01-17T23:03:03.245Z,5.97
2019-01-17T23:05:31.821Z,5.83
2019-01-17T23:08:00.301Z,7.90
2019-01-17T23:10:28.881Z,5.13
2019-01-17T23:12:57.437Z,5.93
2019-01-17T23:15:25.929Z,5.50
2019-01-17T23:17:54.509Z,8.80
2019-01-17T23:20:23.064Z,6.10
2019-01-17T23:22:51.704Z,7.37
2019-01-17T23:25:20.182Z,4.70
2019-01-17T23:31:12.561Z,6.40
2019-01-17T23:33:41.122Z,4.83
2019-01-17T23:36:09.642Z,4.10
2019-01-17T23:38:38.131Z,5.27
2019-01-17T23:41:06.680Z,2.70
2019-01-17T23:43:35.186Z,5.33
2019-01-17T23:46:03.842Z,4.00
2019-01-17T23:48:32.422Z,5.53
2019-01-17T23:51:00.981Z,5.70
2019-01-17T23:53:29.565Z,5.60
2019-01-17T23:55:58.117Z,5.40
2019-01-17T23:58:26.698Z,3.63
